FW0368 Weather Reports


Display with metric or nautical units.
time (UTC)temp
F
wind
direction
speed
MPH
gust
MPH
rain 1hr
in
rain 24hr
in
rain mn
in
humidity
%
barometer
mb
20210922211513 76 82 0.0 0.0 0.00 0.32 0.01 93 1006.7
20210922210030 76 82 0.0 0.0 0.00 0.32 0.01 93 1006.7
20210922204523 76 115 0.0 2.0 0.00 0.32 0.01 93 1006.6
20210922203016 76 116 1.0 3.0 0.00 0.32 0.01 93 1006.7
20210922201528 76 105 2.0 7.0 0.00 0.32 0.01 93 1006.8
20210922200010 76 136 2.0 6.0 0.00 0.32 0.01 93 1006.8
20210922194512 76 119 2.0 7.0 0.00 0.32 0.01 93 1007.0
20210922193034 76 113 3.0 7.0 0.00 0.32 0.01 93 1007.1
20210922191509 76 127 2.0 5.0 0.00 0.32 0.01 93 1007.1
20210922190010 76 153 3.0 7.0 0.00 0.32 0.01 93 1007.0
20210922184504 76 186 2.0 6.0 0.00 0.32 0.01 93 1007.2
20210922183120 76 124 3.0 6.0 0.00 0.32 0.01 93 1007.5
20210922181742 76 114 1.0 6.0 0.00 0.32 0.01 93 1007.6
20210922180129 76 105 1.0 4.0 0.01 0.32 0.01 93 1007.7
20210922174632 76 167 1.0 5.0 0.01 0.33 0.01 93 1007.9
20210922173121 76 163 2.0 6.0 0.01 0.33 0.01 93 1008.0
20210922171638 76 160 1.0 7.0 0.01 0.33 0.01 93 1008.0
20210922170148 77 175 1.0 6.0 0.02 0.32 0.00 93 1008.2
20210922164630 76 217 1.0 5.0 0.04 0.32 0.32 93 1008.4
20210922163157 76 153 2.0 5.0 0.05 0.32 0.32 92 1008.3
20210922161647 76 135 1.0 5.0 0.13 0.32 0.32 92 1008.4
20210922160052 76 119 2.0 9.0 0.19 0.30 0.30 92 1008.4
20210922154602 77 107 3.0 8.0 0.17 0.28 0.28 91 1008.4
20210922153104 77 139 4.0 10.0 0.17 0.28 0.28 90 1008.2
20210922151616 78 123 4.0 10.0 0.07 0.18 0.18 88 1008.4
20210922150052 80 161 6.0 12.0 0.00 0.11 0.11 86 1008.3
20210922144648 80 92 2.0 7.0 0.00 0.11 0.11 88 1008.0
20210922143057 80 96 5.0 7.0 0.00 0.11 0.11 88 1008.0
20210922141537 81 90 4.0 8.0 0.00 0.11 0.11 87 1007.7
20210922140056 81 110 3.0 8.0 0.00 0.11 0.11 87 1007.4
20210922134553 81 115 2.0 9.0 0.00 0.11 0.11 87 1007.2
20210922133116 81 111 2.0 8.0 0.00 0.11 0.11 86 1007.2
20210922131558 81 128 3.0 10.0 0.00 0.11 0.11 86 1007.2
20210922130048 81 149 3.0 8.0 0.00 0.11 0.11 86 1006.8
20210922124545 81 72 4.0 9.0 0.00 0.11 0.11 86 1006.0
20210922123057 82 95 5.0 10.0 0.00 0.11 0.11 85 1005.8
20210922121536 82 123 3.0 9.0 0.00 0.11 0.11 84 1005.6
20210922120106 82 105 4.0 11.0 0.00 0.11 0.11 84 1005.3
20210922114607 83 87 3.0 7.0 0.00 0.11 0.11 83 1004.9
20210922113116 83 97 2.0 7.0 0.00 0.11 0.11 81 1004.9
20210922111546 84 110 1.0 2.0 0.00 0.11 0.11 80 1004.8
20210922110213 84 105 2.0 8.0 0.00 0.11 0.11 78 1004.5
20210922104537 84 121 2.0 6.0 0.00 0.11 0.11 77 1004.4
20210922101559 84 117 2.0 7.0 0.00 0.11 0.11 78 1004.2
20210922100133 84 115 2.0 7.0 0.00 0.11 0.11 79 1004.0
20210922094542 84 106 1.0 4.0 0.00 0.13 0.11 79 1004.2
20210922093046 84 122 1.0 6.0 0.00 0.13 0.11 78 1004.1
20210922091550 83 190 1.0 5.0 0.00 0.13 0.11 79 1004.0
20210922090044 82 194 1.0 5.0 0.00 0.13 0.11 83 1003.9
20210922084558 81 222 4.0 7.0 0.00 0.13 0.11 86 1003.6
20210922083059 81 190 1.0 6.0 0.08 0.13 0.11 87 1003.6
20210922081522 80 194 2.0 7.0 0.09 0.13 0.11 86 1003.5
20210922080019 80 199 4.0 9.0 0.09 0.13 0.11 86 1003.9
20210922074522 81 202 6.0 14.0 0.09 0.13 0.11 85 1004.3
20210922073033 85 233 9.0 19.0 0.01 0.05 0.02 78 1004.1
20210922071542 89 174 5.0 12.0 0.00 0.04 0.02 68 1003.9
20210922070022 89 153 3.0 9.0 0.00 0.04 0.02 69 1004.1
20210922064550 88 184 3.0 10.0 0.00 0.04 0.02 70 1004.4
20210922063011 87 141 3.0 10.0 0.00 0.04 0.02 72 1004.5
20210922061512 88 179 4.0 10.0 0.00 0.04 0.02 71 1004.8
20210922060002 88 165 5.0 11.0 0.00 0.04 0.02 72 1004.8
20210922054716 87 109 7.0 12.0 0.01 0.04 0.02 73 1005.0
20210922053128 86 73 3.0 12.0 0.01 0.04 0.02 77 1005.7
20210922051727 85 136 3.0 11.0 0.01 0.04 0.02 79 1006.0
20210922050107 84 128 2.0 9.0 0.01 0.04 0.02 83 1006.2
20210922044649 84 123 4.0 12.0 0.00 0.03 0.01 80 1006.4
20210922043107 85 117 5.0 14.0 0.00 0.03 0.01 79 1006.6
20210922041626 85 117 5.0 10.0 0.00 0.03 0.01 80 1006.7
20210922040113 84 121 5.0 12.0 0.00 0.03 0.01 83 1006.8
20210922034644 84 96 5.0 11.0 0.00 0.03 0.01 82 1006.9
20210922033105 83 134 5.0 11.0 0.00 0.03 0.01 83 1007.1
20210922031627 83 132 4.0 10.0 0.00 0.03 0.01 84 1007.2
20210922030102 83 82 4.0 13.0 0.00 0.03 0.01 85 1007.6
20210922024546 82 114 5.0 10.0 0.00 0.03 0.01 86 1007.6
20210922023052 81 94 5.0 10.0 0.00 0.03 0.01 87 1007.7
20210922021530 81 105 3.0 8.0 0.00 0.03 0.01 87 1007.6
20210922020056 81 90 3.0 7.0 0.00 0.03 0.01 88 1007.6
20210922014535 80 145 3.0 8.0 0.00 0.03 0.01 89 1007.4
20210922013023 80 122 1.0 3.0 0.00 0.03 0.01 90 1007.2
20210922011523 79 98 2.0 6.0 0.00 0.03 0.01 91 1007.0
20210922010011 79 80 0.0 3.0 0.00 0.03 0.01 92 1006.7
20210922004526 78 57 0.0 4.0 0.00 0.03 0.01 92 1006.3
20210922003014 78 89 2.0 7.0 0.00 0.03 0.01 92 1006.2
20210922001512 78 72 3.0 5.0 0.00 0.03 0.01 93 1005.9
20210922000012 77 81 4.0 5.0 0.00 0.03 0.01 93 1005.8
20210921234508 77 77 3.0 8.0 0.00 0.03 0.01 93 1005.7
20210921233024 77 87 1.0 3.0 0.00 0.03 0.01 93 1005.5
20210921231506 77 63 0.0 0.0 0.00 0.03 0.01 93 1005.4
20210921230010 77 63 1.0 5.0 0.00 0.03 0.01 93 1005.2
20210921224514 77 61 1.0 5.0 0.00 0.03 0.01 93 1005.1
20210921223005 77 78 2.0 5.0 0.00 0.03 0.01 93 1005.1
20210921221513 77 70 2.0 5.0 0.00 0.03 0.01 93 1005.0
20210921220002 77 69 0.0 3.0 0.00 0.03 0.01 93 1004.8
20210921214858 77 59 0.0 0.0 0.00 0.03 0.01 92 1004.7
20210921213141 77 55 0.0 0.0 0.00 0.03 0.01 92 1004.8